Time;durP1;ratioP1;P1;durP2;ratioP2;P2;SDS_P1;SDS_P2;PMS_P1;PMS_P2;Temp;Humidity;BMP_temperature;BMP_pressure;BME280_temperature;BME280_humidity;BME280_pressure;Samples;Min_cycle;Max_cycle;Signal;HPM_P1;HPM_P2
2024/01/07 00:01:55;;;;;;;18.40;11.97;;;0.90;90.70;;;;;;5007526;28;20026;-89
2024/01/07 00:04:21;;;;;;;15.70;11.03;;;0.90;90.80;;;;;;5036648;28;20116;-89
2024/01/07 00:06:47;;;;;;;18.33;11.40;;;0.90;90.80;;;;;;5002513;28;20052;-89
2024/01/07 00:09:12;;;;;;;14.60;10.63;;;1.50;90.90;;;;;;5017669;28;20033;-89
2024/01/07 00:11:39;;;;;;;15.77;11.30;;;0.90;90.80;;;;;;5013817;28;20041;-89
2024/01/07 00:14:04;;;;;;;14.70;10.03;;;0.90;90.70;;;;;;5004360;28;20048;-89
2024/01/07 00:16:30;;;;;;;16.20;10.90;;;1.20;90.80;;;;;;5004159;28;20042;-89
2024/01/07 00:18:56;;;;;;;13.43;9.77;;;0.90;90.70;;;;;;5007772;28;20034;-89
2024/01/07 00:21:21;;;;;;;14.77;10.57;;;0.90;90.70;;;;;;5009191;28;20123;-89
2024/01/07 00:23:47;;;;;;;14.97;10.20;;;0.90;90.70;;;;;;5016539;28;20122;-90
2024/01/07 00:26:18;;;;;;;16.37;11.00;;;0.90;90.70;;;;;;5021576;28;20496;-89
2024/01/07 00:28:44;;;;;;;14.17;10.10;;;0.90;90.70;;;;;;4983308;28;20042;-90
2024/01/07 00:31:12;;;;;;;15.27;10.43;;;0.90;90.70;;;;;;4999067;28;20065;-90
2024/01/07 00:33:38;;;;;;;16.03;10.53;;;0.90;90.60;;;;;;4998818;28;20037;-89
2024/01/07 00:36:06;;;;;;;16.33;10.20;;;0.90;90.60;;;;;;5001817;28;20128;-90
2024/01/07 00:38:32;;;;;;;15.30;10.70;;;0.90;90.70;;;;;;5003080;28;20052;-90
2024/01/07 00:40:58;;;;;;;14.97;10.57;;;0.90;90.70;;;;;;5006285;28;20112;-88
2024/01/07 00:43:23;;;;;;;18.40;11.53;;;0.90;90.60;;;;;;4992881;28;20046;-88
2024/01/07 00:45:49;;;;;;;18.93;11.80;;;0.90;90.70;;;;;;5008578;28;20045;-89
2024/01/07 00:48:20;;;;;;;15.53;11.67;;;0.90;90.70;;;;;;5024561;28;20074;-89
2024/01/07 00:50:45;;;;;;;16.13;11.80;;;1.70;91.00;;;;;;5008373;28;20026;-89
2024/01/07 00:53:11;;;;;;;15.20;10.47;;;0.90;90.80;;;;;;5006506;28;20040;-88
2024/01/07 00:55:36;;;;;;;17.43;11.53;;;0.90;90.80;;;;;;5005690;28;20045;-89
2024/01/07 00:58:02;;;;;;;17.67;11.63;;;0.90;90.80;;;;;;5009433;28;20037;-89
2024/01/07 01:00:29;;;;;;;15.20;10.87;;;0.90;90.80;;;;;;5009630;28;20038;-89
2024/01/07 01:02:55;;;;;;;15.33;10.90;;;0.90;90.70;;;;;;5013870;28;20029;-89
2024/01/07 01:05:20;;;;;;;17.30;11.60;;;0.90;90.80;;;;;;5007385;28;20035;-89
2024/01/07 01:07:46;;;;;;;16.50;11.40;;;0.90;90.80;;;;;;5028111;28;20484;-89
2024/01/07 01:10:13;;;;;;;15.33;10.77;;;0.90;90.80;;;;;;5021024;28;20436;-89
2024/01/07 01:12:38;;;;;;;16.17;11.23;;;1.20;91.00;;;;;;5008649;28;20041;-89
2024/01/07 01:15:04;;;;;;;16.90;11.83;;;0.90;90.80;;;;;;5005502;28;20123;-89
2024/01/07 01:17:30;;;;;;;14.73;10.47;;;0.90;90.90;;;;;;5010771;28;20038;-89
2024/01/07 01:19:56;;;;;;;16.37;10.90;;;0.90;90.90;;;;;;5002134;28;20512;-90
2024/01/07 01:22:21;;;;;;;14.20;11.00;;;0.90;90.90;;;;;;4995410;28;20083;-89
2024/01/07 01:24:48;;;;;;;16.17;10.87;;;0.90;90.90;;;;;;5021348;28;20045;-89
2024/01/07 01:27:15;;;;;;;16.27;11.10;;;0.90;90.90;;;;;;5009164;28;20404;-89
2024/01/07 01:29:44;;;;;;;17.83;11.43;;;0.90;90.90;;;;;;5003798;28;20048;-90
2024/01/07 01:32:09;;;;;;;16.10;11.27;;;0.90;90.90;;;;;;5023725;28;20034;-89
2024/01/07 01:34:36;;;;;;;14.63;10.83;;;0.90;90.90;;;;;;5023165;28;20041;-90
2024/01/07 01:37:01;;;;;;;14.57;10.77;;;0.90;90.90;;;;;;5006962;28;20121;-89
2024/01/07 01:39:28;;;;;;;15.57;11.27;;;0.90;90.90;;;;;;5001888;28;20472;-89
2024/01/07 01:41:54;;;;;;;16.47;11.50;;;1.00;90.90;;;;;;5003433;28;20547;-89
2024/01/07 01:44:20;;;;;;;15.23;10.77;;;1.00;91.00;;;;;;5004300;28;20041;-90
2024/01/07 01:46:46;;;;;;;13.83;10.43;;;1.00;90.90;;;;;;5004195;28;20080;-89
2024/01/07 01:49:12;;;;;;;14.07;10.70;;;1.00;90.90;;;;;;5005241;28;20077;-89
2024/01/07 01:51:38;;;;;;;13.83;11.07;;;1.00;90.90;;;;;;5009115;28;20069;-89
2024/01/07 01:54:05;;;;;;;14.37;10.13;;;1.00;90.80;;;;;;5006288;28;20048;-90
2024/01/07 01:56:33;;;;;;;17.23;11.20;;;1.00;90.80;;;;;;5006378;28;20045;-90
2024/01/07 01:58:59;;;;;;;18.10;10.87;;;1.00;90.80;;;;;;5004757;28;20494;-89
2024/01/07 02:01:25;;;;;;;15.97;11.17;;;1.00;90.80;;;;;;5021302;28;20038;-89
2024/01/07 02:03:53;;;;;;;13.30;10.37;;;1.00;90.60;;;;;;5026156;28;20036;-89
2024/01/07 02:06:20;;;;;;;15.47;10.53;;;1.00;90.50;;;;;;5010543;28;20037;-89
2024/01/07 02:08:46;;;;;;;13.47;9.57;;;0.90;90.50;;;;;;5014623;28;20033;-89
2024/01/07 02:11:30;;;;;;;16.70;12.13;;;0.90;90.40;;;;;;5012118;28;20065;-89
2024/01/07 02:13:55;;;;;;;13.07;9.53;;;0.90;90.40;;;;;;5007010;28;20124;-89
2024/01/07 02:16:21;;;;;;;15.63;10.37;;;0.90;90.40;;;;;;5006762;28;20465;-89
2024/01/07 02:18:46;;;;;;;13.67;9.90;;;0.90;90.40;;;;;;5006240;28;20165;-88
2024/01/07 02:21:15;;;;;;;15.00;10.27;;;1.10;90.50;;;;;;5009788;28;20041;-89
2024/01/07 02:23:41;;;;;;;14.53;10.13;;;0.90;90.40;;;;;;5017979;28;20041;-89
2024/01/07 02:26:07;;;;;;;14.30;9.80;;;0.90;90.30;;;;;;5004841;28;20046;-88
2024/01/07 02:28:33;;;;;;;13.53;9.90;;;0.90;90.30;;;;;;5008230;28;20415;-88
2024/01/07 02:30:59;;;;;;;13.33;9.90;;;1.00;90.20;;;;;;5024172;28;20045;-89
2024/01/07 02:33:25;;;;;;;13.83;10.50;;;0.90;90.20;;;;;;5013353;28;20045;-89
2024/01/07 02:35:50;;;;;;;13.00;9.93;;;0.90;90.10;;;;;;5035115;28;20042;-89
2024/01/07 02:38:16;;;;;;;16.90;10.40;;;0.90;90.20;;;;;;5004642;28;20030;-89
2024/01/07 02:40:42;;;;;;;12.97;9.10;;;0.90;90.20;;;;;;5007517;28;20034;-89
2024/01/07 02:43:11;;;;;;;13.87;9.40;;;0.90;89.90;;;;;;5006281;28;20049;-88
2024/01/07 02:45:36;;;;;;;15.57;10.23;;;0.90;90.00;;;;;;5000688;28;20042;-89
2024/01/07 02:48:03;;;;;;;15.50;10.13;;;0.90;89.90;;;;;;5024525;28;20491;-89
2024/01/07 02:50:28;;;;;;;14.93;10.43;;;0.80;89.90;;;;;;5002183;28;20042;-89
2024/01/07 02:52:54;;;;;;;14.20;9.60;;;0.90;90.00;;;;;;5020319;28;20069;-89
2024/01/07 02:55:20;;;;;;;14.27;10.60;;;0.90;90.00;;;;;;5020068;28;20036;-89
2024/01/07 02:57:46;;;;;;;14.37;10.57;;;0.90;89.90;;;;;;5007456;28;20029;-89
2024/01/07 03:00:12;;;;;;;17.47;10.33;;;0.90;89.80;;;;;;5004563;28;20096;-89
2024/01/07 03:02:38;;;;;;;14.57;10.20;;;0.90;89.80;;;;;;5017997;28;20112;-89
2024/01/07 03:05:03;;;;;;;13.27;10.03;;;0.90;89.70;;;;;;5020288;28;20029;-89
2024/01/07 03:07:29;;;;;;;16.13;9.97;;;0.90;89.60;;;;;;5003187;28;20050;-89
2024/01/07 03:09:55;;;;;;;16.20;10.17;;;0.90;89.50;;;;;;5017797;28;21213;-89
2024/01/07 03:12:20;;;;;;;13.83;9.53;;;0.90;89.50;;;;;;5003523;28;20037;-89
2024/01/07 03:14:46;;;;;;;13.73;9.87;;;0.90;89.40;;;;;;5001408;28;20124;-89
2024/01/07 03:17:12;;;;;;;13.37;8.53;;;0.90;89.60;;;;;;4997110;28;20037;-88
2024/01/07 03:19:38;;;;;;;14.73;9.37;;;0.90;89.60;;;;;;5004881;28;20382;-88
2024/01/07 03:22:06;;;;;;;13.03;9.07;;;0.90;89.70;;;;;;5007517;28;20043;-88
2024/01/07 03:24:31;;;;;;;12.73;8.13;;;0.90;89.60;;;;;;5014223;28;20092;-87
2024/01/07 03:26:57;;;;;;;13.07;7.80;;;0.90;89.40;;;;;;5024078;28;20041;-88
2024/01/07 03:29:22;;;;;;;12.30;7.47;;;0.90;89.00;;;;;;4999183;28;20041;-88
2024/01/07 03:31:50;;;;;;;10.63;7.40;;;0.90;89.00;;;;;;5002874;28;20459;-87
2024/01/07 03:34:16;;;;;;;11.70;7.50;;;0.90;89.10;;;;;;5008013;28;20559;-87
2024/01/07 03:36:42;;;;;;;12.20;8.10;;;0.90;89.10;;;;;;5006349;28;20126;-88
2024/01/07 03:39:07;;;;;;;8.17;6.40;;;0.80;88.50;;;;;;5008521;28;20034;-88
2024/01/07 03:41:33;;;;;;;10.67;7.20;;;0.80;88.60;;;;;;5003531;28;20125;-88
2024/01/07 03:43:59;;;;;;;10.40;6.70;;;0.80;88.30;;;;;;5023126;28;20045;-87
2024/01/07 03:46:25;;;;;;;11.57;6.93;;;0.80;88.40;;;;;;5005073;28;20117;-88
2024/01/07 03:48:50;;;;;;;10.37;7.53;;;0.80;88.20;;;;;;5003490;28;20034;-88
2024/01/07 03:51:16;;;;;;;10.07;6.30;;;0.80;88.80;;;;;;5001747;28;20561;-87
2024/01/07 03:53:42;;;;;;;7.57;5.77;;;0.80;88.10;;;;;;5003987;28;20046;-88
2024/01/07 03:56:07;;;;;;;9.60;5.80;;;0.80;88.20;;;;;;5001604;28;20085;-88
2024/01/07 03:58:36;;;;;;;11.37;6.77;;;0.70;87.80;;;;;;5006817;28;20038;-88
2024/01/07 04:01:04;;;;;;;9.50;6.00;;;0.80;87.90;;;;;;5006192;28;20042;-88
2024/01/07 04:03:30;;;;;;;8.00;6.03;;;0.80;87.90;;;;;;5019587;28;20029;-87
2024/01/07 04:05:56;;;;;;;9.57;6.43;;;0.70;87.90;;;;;;5025439;28;20152;-88
2024/01/07 04:08:21;;;;;;;8.67;6.10;;;0.70;87.80;;;;;;5002564;28;20029;-88
2024/01/07 04:10:47;;;;;;;11.93;6.80;;;0.70;87.90;;;;;;5001453;28;20408;-88
2024/01/07 04:13:13;;;;;;;9.17;6.07;;;0.70;87.90;;;;;;5003211;28;20034;-88
2024/01/07 04:15:38;;;;;;;10.00;6.00;;;0.70;87.80;;;;;;5005461;28;20040;-88
2024/01/07 04:18:05;;;;;;;10.77;6.50;;;0.70;87.80;;;;;;5005692;28;20030;-88
2024/01/07 04:20:31;;;;;;;9.17;5.93;;;0.70;87.90;;;;;;5011098;28;20034;-89
2024/01/07 04:22:57;;;;;;;8.90;6.00;;;0.70;88.10;;;;;;5005879;28;20040;-88
2024/01/07 04:25:26;;;;;;;9.83;6.03;;;0.70;87.90;;;;;;5008327;28;20030;-88
2024/01/07 04:27:52;;;;;;;9.17;6.03;;;0.70;88.00;;;;;;5006388;28;20096;-88
2024/01/07 04:30:17;;;;;;;10.27;6.20;;;0.70;88.00;;;;;;5011197;28;20065;-88
2024/01/07 04:32:43;;;;;;;13.33;6.50;;;0.70;87.90;;;;;;5015691;28;20045;-88
2024/01/07 04:35:09;;;;;;;8.93;5.80;;;0.70;87.90;;;;;;5019112;28;20037;-88
2024/01/07 04:37:35;;;;;;;8.33;6.70;;;0.70;87.90;;;;;;5010352;28;20042;-88
2024/01/07 04:40:02;;;;;;;11.10;5.60;;;0.70;88.00;;;;;;5006646;28;20502;-88
2024/01/07 04:42:27;;;;;;;9.70;5.97;;;0.70;87.70;;;;;;5009539;28;20038;-88
2024/01/07 04:44:53;;;;;;;8.20;5.40;;;0.70;87.50;;;;;;5008954;28;20033;-88
2024/01/07 04:47:29;;;;;;;10.23;7.03;;;0.70;87.60;;;;;;5003388;28;20171;-88
2024/01/07 04:49:54;;;;;;;9.60;5.53;;;0.70;87.60;;;;;;5006050;28;20088;-88
2024/01/07 04:52:22;;;;;;;9.77;5.90;;;0.70;87.50;;;;;;5008000;28;20034;-88
2024/01/07 04:54:49;;;;;;;8.33;5.63;;;0.70;87.40;;;;;;5010009;28;20037;-88
2024/01/07 04:57:14;;;;;;;9.33;5.47;;;0.60;87.30;;;;;;5026310;28;20038;-88
2024/01/07 04:59:40;;;;;;;8.90;5.27;;;0.70;86.90;;;;;;5009589;28;20032;-88
2024/01/07 05:02:05;;;;;;;10.07;5.97;;;0.60;86.60;;;;;;5018336;28;20025;-87
2024/01/07 05:04:32;;;;;;;9.07;5.63;;;0.60;86.50;;;;;;5016957;28;20034;-88
2024/01/07 05:06:57;;;;;;;8.20;5.43;;;0.60;86.40;;;;;;5011822;28;20056;-88
2024/01/07 05:09:23;;;;;;;8.87;5.43;;;0.60;86.30;;;;;;5008648;28;20034;-88
2024/01/07 05:11:49;;;;;;;8.30;5.33;;;0.60;86.10;;;;;;5010279;28;20040;-88
2024/01/07 05:14:14;;;;;;;9.70;5.03;;;0.60;86.50;;;;;;5006727;28;20117;-88
2024/01/07 05:16:40;;;;;;;6.90;4.60;;;0.50;86.10;;;;;;5005256;28;20057;-88
2024/01/07 05:19:05;;;;;;;7.23;4.70;;;0.60;86.20;;;;;;5028524;28;20556;-88
2024/01/07 05:21:31;;;;;;;7.30;4.20;;;0.50;85.80;;;;;;5004821;28;20042;-88
2024/01/07 05:23:56;;;;;;;7.17;4.57;;;0.60;85.70;;;;;;5006076;28;20083;-88
2024/01/07 05:26:22;;;;;;;8.27;4.93;;;0.50;85.50;;;;;;5009505;28;20048;-88
2024/01/07 05:28:48;;;;;;;8.10;5.33;;;0.70;85.80;;;;;;5013916;28;20044;-88
2024/01/07 05:31:17;;;;;;;7.87;4.80;;;0.50;85.40;;;;;;5005429;28;20050;-88
2024/01/07 05:33:44;;;;;;;6.07;4.47;;;0.50;85.60;;;;;;5006055;28;20052;-88
2024/01/07 05:36:13;;;;;;;8.57;5.00;;;0.50;85.30;;;;;;5003783;28;20085;-88
2024/01/07 05:38:39;;;;;;;7.47;4.97;;;0.50;85.30;;;;;;5009165;28;20038;-88
2024/01/07 05:41:05;;;;;;;8.80;4.67;;;0.50;85.10;;;;;;5008635;28;20164;-88
2024/01/07 05:43:30;;;;;;;7.60;4.63;;;0.50;85.00;;;;;;5010092;28;20050;-88
2024/01/07 05:45:56;;;;;;;8.30;4.47;;;0.50;85.10;;;;;;5005558;28;20125;-88
2024/01/07 05:48:22;;;;;;;7.73;4.60;;;0.50;84.90;;;;;;5022798;28;20103;-88
2024/01/07 05:50:48;;;;;;;7.17;4.17;;;0.50;85.10;;;;;;5007344;28;20042;-88
2024/01/07 05:53:14;;;;;;;5.43;3.73;;;0.50;84.60;;;;;;5012861;28;20531;-88
2024/01/07 05:55:40;;;;;;;4.83;3.63;;;0.50;84.40;;;;;;5007113;28;20045;-88
2024/01/07 05:58:05;;;;;;;5.63;3.67;;;0.50;84.20;;;;;;5008317;28;20191;-88
2024/01/07 06:00:31;;;;;;;5.80;3.40;;;0.50;84.40;;;;;;4999713;28;20050;-88
2024/01/07 06:02:57;;;;;;;5.53;3.60;;;0.50;84.40;;;;;;5025469;28;20038;-88
2024/01/07 06:05:23;;;;;;;5.80;3.43;;;0.50;84.20;;;;;;5004381;28;20045;-87
2024/01/07 06:07:49;;;;;;;4.13;2.87;;;0.50;84.50;;;;;;5004633;28;20493;-88
2024/01/07 06:10:15;;;;;;;4.90;3.37;;;0.50;84.40;;;;;;5007814;28;20048;-88
2024/01/07 06:12:40;;;;;;;6.27;3.33;;;0.50;84.30;;;;;;5002476;28;20044;-88
2024/01/07 06:15:06;;;;;;;5.53;2.73;;;0.50;84.10;;;;;;5003041;28;20037;-88
2024/01/07 06:17:32;;;;;;;4.77;3.20;;;0.50;84.00;;;;;;5008889;28;20037;-89
2024/01/07 06:19:58;;;;;;;3.70;2.67;;;0.50;83.90;;;;;;5018991;28;20033;-88
2024/01/07 06:22:23;;;;;;;5.07;2.40;;;0.50;83.80;;;;;;5012037;28;20092;-88
2024/01/07 06:24:49;;;;;;;4.93;2.50;;;0.50;83.50;;;;;;5022693;28;20080;-88
2024/01/07 06:27:14;;;;;;;5.53;2.47;;;0.50;83.40;;;;;;5025104;28;20132;-88
2024/01/07 06:29:40;;;;;;;3.40;1.87;;;0.50;82.90;;;;;;5005073;28;20160;-88
2024/01/07 06:32:06;;;;;;;5.50;2.40;;;0.50;83.00;;;;;;5007180;28;20086;-88
2024/01/07 06:34:33;;;;;;;3.87;2.27;;;0.50;82.70;;;;;;5020056;28;20433;-88
2024/01/07 06:36:59;;;;;;;3.73;2.07;;;0.40;82.30;;;;;;4999031;28;20448;-88
2024/01/07 06:39:26;;;;;;;4.10;2.10;;;0.40;82.60;;;;;;5001269;28;20427;-89
2024/01/07 06:41:55;;;;;;;3.90;1.90;;;0.40;82.60;;;;;;5005403;28;20155;-88
2024/01/07 06:44:20;;;;;;;4.00;2.40;;;0.40;81.90;;;;;;5005252;28;20360;-88
2024/01/07 06:46:46;;;;;;;4.63;2.00;;;0.40;82.00;;;;;;5001987;28;20072;-89
2024/01/07 06:49:11;;;;;;;4.53;1.80;;;0.40;82.10;;;;;;5007580;28;20045;-88
2024/01/07 06:51:38;;;;;;;4.27;1.80;;;0.40;82.00;;;;;;5004666;28;20117;-88
2024/01/07 06:54:04;;;;;;;4.07;2.40;;;0.40;81.60;;;;;;5001278;28;20049;-88
2024/01/07 06:56:29;;;;;;;4.83;2.20;;;0.40;81.50;;;;;;5010212;28;20083;-88
2024/01/07 06:58:55;;;;;;;5.33;2.10;;;0.40;81.30;;;;;;5009145;28;20064;-88
2024/01/07 07:01:22;;;;;;;4.80;1.90;;;0.30;81.50;;;;;;4999797;28;20037;-88
2024/01/07 07:03:49;;;;;;;4.33;1.97;;;0.30;81.60;;;;;;5001331;28;20065;-88
2024/01/07 07:06:15;;;;;;;4.23;1.90;;;0.30;81.70;;;;;;5000936;28;20040;-89
2024/01/07 07:08:40;;;;;;;5.20;2.17;;;0.30;81.50;;;;;;5002827;28;20038;-88
2024/01/07 07:11:06;;;;;;;5.53;2.40;;;0.30;81.00;;;;;;5002101;28;20049;-87
2024/01/07 07:13:32;;;;;;;3.60;1.83;;;0.30;81.20;;;;;;5004930;28;20034;-88
2024/01/07 07:15:57;;;;;;;3.67;2.30;;;0.30;81.00;;;;;;4997578;28;20037;-88
2024/01/07 07:18:24;;;;;;;3.67;1.90;;;0.30;81.00;;;;;;5002925;28;20030;-88
2024/01/07 07:20:49;;;;;;;5.10;2.23;;;0.30;81.10;;;;;;4999933;28;20030;-88
2024/01/07 07:23:15;;;;;;;3.90;1.80;;;0.30;80.90;;;;;;4995939;28;20089;-88
2024/01/07 07:25:41;;;;;;;5.77;1.93;;;0.20;81.10;;;;;;5003871;28;20049;-88
2024/01/07 07:28:06;;;;;;;5.97;2.27;;;0.30;81.30;;;;;;5012320;28;20101;-87
2024/01/07 07:30:32;;;;;;;4.97;1.80;;;0.20;81.40;;;;;;5024298;28;20037;-87
2024/01/07 07:32:57;;;;;;;3.20;2.17;;;0.30;81.40;;;;;;5005133;28;20046;-88
2024/01/07 07:35:23;;;;;;;5.53;1.60;;;0.30;81.50;;;;;;5015702;28;20121;-88
2024/01/07 07:37:48;;;;;;;4.50;1.63;;;0.30;81.60;;;;;;5000530;28;20112;-88
2024/01/07 07:40:14;;;;;;;4.10;2.10;;;0.30;81.20;;;;;;5002357;28;20366;-88
2024/01/07 07:42:40;;;;;;;4.07;1.93;;;0.40;81.20;;;;;;5008286;28;20077;-88
2024/01/07 07:45:06;;;;;;;3.17;1.73;;;0.30;81.20;;;;;;5000468;28;20049;-88
2024/01/07 07:47:32;;;;;;;5.23;2.57;;;0.40;81.30;;;;;;5003052;28;20049;-88
2024/01/07 07:49:57;;;;;;;5.17;2.80;;;0.40;80.90;;;;;;5007243;28;20041;-88
2024/01/07 07:52:25;;;;;;;4.43;1.77;;;0.40;80.40;;;;;;5007655;28;20100;-88
2024/01/07 07:54:52;;;;;;;5.50;2.63;;;0.40;80.30;;;;;;5003812;28;20037;-88
2024/01/07 07:57:20;;;;;;;4.67;2.33;;;0.40;80.20;;;;;;5023153;28;20505;-87
2024/01/07 07:59:46;;;;;;;3.37;1.97;;;0.40;80.00;;;;;;5011946;28;20125;-87
2024/01/07 08:02:12;;;;;;;3.10;1.40;;;0.40;79.80;;;;;;5007436;28;20122;-88
2024/01/07 08:04:41;;;;;;;3.10;1.60;;;0.50;79.40;;;;;;5004391;28;20141;-87
2024/01/07 08:07:06;;;;;;;3.20;1.53;;;0.40;79.20;;;;;;5012999;28;20044;-87
2024/01/07 08:09:32;;;;;;;3.73;1.57;;;0.40;79.70;;;;;;5000866;28;20042;-88
2024/01/07 08:11:58;;;;;;;4.27;1.67;;;0.40;79.40;;;;;;5010699;28;20041;-89
2024/01/07 08:14:24;;;;;;;5.37;1.80;;;1.00;79.60;;;;;;5009751;28;20468;-87
2024/01/07 08:16:49;;;;;;;2.80;1.60;;;0.40;79.30;;;;;;5001880;28;20038;-87
2024/01/07 08:19:15;;;;;;;3.30;1.77;;;0.50;78.90;;;;;;5014713;28;20092;-87
2024/01/07 08:21:40;;;;;;;3.93;1.70;;;0.50;78.90;;;;;;5009057;28;20048;-88
2024/01/07 08:24:06;;;;;;;4.43;1.83;;;0.40;79.00;;;;;;5025186;28;20030;-88
2024/01/07 08:26:32;;;;;;;3.67;1.63;;;0.50;79.00;;;;;;5025569;28;20488;-87
2024/01/07 08:28:58;;;;;;;3.87;1.67;;;0.50;78.50;;;;;;5007260;28;20072;-87
2024/01/07 08:31:23;;;;;;;2.70;1.50;;;0.50;78.40;;;;;;5007769;28;20052;-87
2024/01/07 08:33:49;;;;;;;4.10;1.50;;;0.50;78.50;;;;;;5011465;28;20041;-87
2024/01/07 08:36:15;;;;;;;3.23;1.57;;;0.40;78.30;;;;;;5021186;28;20030;-87
2024/01/07 08:38:40;;;;;;;2.67;1.53;;;0.40;78.10;;;;;;5025567;28;20041;-87
2024/01/07 08:41:06;;;;;;;4.83;1.80;;;0.40;77.20;;;;;;5028826;28;20065;-88
2024/01/07 08:43:32;;;;;;;3.63;1.60;;;0.40;76.70;;;;;;5026592;28;20088;-88
2024/01/07 08:45:59;;;;;;;5.63;1.80;;;0.30;76.70;;;;;;5015172;28;20037;-87
2024/01/07 08:48:24;;;;;;;4.17;1.57;;;0.30;76.90;;;;;;5008626;28;20092;-87
2024/01/07 08:50:50;;;;;;;2.83;1.40;;;0.20;77.20;;;;;;5002639;28;20053;-87
2024/01/07 08:53:16;;;;;;;4.73;1.60;;;0.20;77.30;;;;;;5007852;28;20488;-88
2024/01/07 08:55:42;;;;;;;6.00;1.70;;;0.20;77.30;;;;;;5015865;28;20057;-88
2024/01/07 08:58:07;;;;;;;6.70;1.60;;;0.20;77.20;;;;;;5007048;28;20057;-87
2024/01/07 09:00:33;;;;;;;3.17;1.53;;;0.10;77.30;;;;;;5006674;28;20037;-87
2024/01/07 09:02:58;;;;;;;4.57;1.50;;;0.10;76.80;;;;;;5007228;28;20045;-87
2024/01/07 09:05:24;;;;;;;4.60;1.57;;;0.10;76.90;;;;;;5003843;28;20345;-87
2024/01/07 09:07:50;;;;;;;5.37;1.90;;;0.10;77.00;;;;;;5003567;28;20042;-86
2024/01/07 09:10:16;;;;;;;2.93;1.50;;;0.10;76.90;;;;;;5000069;28;20033;-86
2024/01/07 09:12:41;;;;;;;2.30;1.50;;;0.00;77.20;;;;;;5019914;28;20045;-87
2024/01/07 09:15:08;;;;;;;4.67;1.87;;;0.00;77.20;;;;;;5009127;28;20045;-87
2024/01/07 09:17:37;;;;;;;2.77;1.50;;;0.00;77.00;;;;;;5019644;28;20105;-87
2024/01/07 09:20:08;;;;;;;5.23;1.47;;;0.00;77.10;;;;;;5006847;28;20083;-86
2024/01/07 09:22:34;;;;;;;3.50;1.60;;;0.00;76.80;;;;;;5005662;28;20611;-86
2024/01/07 09:25:04;;;;;;;3.77;1.60;;;0.00;76.80;;;;;;5007599;28;20041;-87
2024/01/07 09:27:30;;;;;;;2.13;1.10;;;0.00;76.80;;;;;;5016610;28;20042;-86
2024/01/07 09:29:56;;;;;;;4.27;1.63;;;0.00;76.60;;;;;;5021368;28;20104;-86
2024/01/07 09:32:22;;;;;;;3.03;1.63;;;0.20;76.60;;;;;;5001418;28;20052;-84
2024/01/07 09:34:47;;;;;;;2.23;1.27;;;0.00;76.70;;;;;;5024579;28;20045;-88
2024/01/07 09:37:13;;;;;;;2.73;1.40;;;0.00;76.70;;;;;;5002581;28;20053;-85
2024/01/07 09:39:43;;;;;;;2.53;1.23;;;0.10;76.60;;;;;;5003135;28;20033;-85
2024/01/07 09:42:13;;;;;;;3.57;1.33;;;0.10;76.80;;;;;;5002518;28;20042;-85
2024/01/07 09:44:40;;;;;;;3.97;1.47;;;0.10;77.10;;;;;;5005580;28;20046;-87
2024/01/07 09:47:07;;;;;;;4.03;1.50;;;0.90;77.50;;;;;;5010217;28;20167;-86
2024/01/07 09:49:33;;;;;;;3.47;1.47;;;0.20;77.20;;;;;;5006826;28;20042;-87
2024/01/07 09:52:03;;;;;;;5.43;1.43;;;0.20;77.20;;;;;;5015255;28;20061;-86
2024/01/07 09:54:29;;;;;;;2.63;1.47;;;0.30;77.00;;;;;;4996007;28;20048;-86
2024/01/07 09:57:00;;;;;;;3.53;1.40;;;1.10;77.00;;;;;;5006350;28;20037;-86
2024/01/07 09:59:30;;;;;;;2.40;1.40;;;1.00;76.40;;;;;;4996581;28;20065;-87
2024/01/07 10:01:57;;;;;;;2.33;1.30;;;0.50;76.00;;;;;;5020823;28;20034;-86
2024/01/07 10:04:24;;;;;;;3.40;1.10;;;0.50;75.70;;;;;;5000406;28;20140;-87
2024/01/07 10:06:50;;;;;;;3.23;1.20;;;0.60;75.80;;;;;;4999238;28;20037;-86
2024/01/07 10:09:17;;;;;;;2.53;1.50;;;0.60;75.50;;;;;;5002528;28;20040;-87
2024/01/07 10:11:46;;;;;;;2.37;1.33;;;0.60;75.00;;;;;;4999740;28;20064;-87
2024/01/07 10:14:11;;;;;;;2.53;1.20;;;0.70;74.40;;;;;;4998690;28;20060;-86
2024/01/07 10:16:37;;;;;;;2.43;1.20;;;0.70;74.50;;;;;;5017395;28;20038;-85
2024/01/07 10:19:03;;;;;;;4.00;1.10;;;0.70;74.40;;;;;;4988562;28;20042;-87
2024/01/07 10:21:28;;;;;;;3.50;1.20;;;0.80;74.20;;;;;;5003757;28;20053;-86
2024/01/07 10:24:10;;;;;;;3.43;1.23;;;0.80;73.30;;;;;;5001710;28;20041;-88
2024/01/07 10:26:40;;;;;;;2.93;1.00;;;0.80;72.70;;;;;;5001991;28;20049;-86
2024/01/07 10:29:08;;;;;;;2.60;1.20;;;1.50;72.90;;;;;;4999171;28;20045;-86
2024/01/07 10:31:34;;;;;;;3.30;1.10;;;0.90;72.70;;;;;;5000020;28;20080;-85
2024/01/07 10:33:59;;;;;;;3.70;1.00;;;0.90;73.00;;;;;;5020688;28;20041;-86
2024/01/07 10:36:25;;;;;;;2.50;1.23;;;1.00;72.70;;;;;;5003542;28;20053;-87
2024/01/07 10:38:51;;;;;;;1.83;1.00;;;1.00;73.30;;;;;;5000224;28;20053;-87
2024/01/07 10:41:21;;;;;;;3.90;1.33;;;1.00;73.40;;;;;;5021284;28;20030;-87
2024/01/07 10:43:48;;;;;;;1.93;1.10;;;1.10;72.40;;;;;;4999375;28;20064;-87
2024/01/07 10:46:14;;;;;;;2.70;1.17;;;1.10;72.00;;;;;;4999672;28;20061;-87
2024/01/07 10:48:58;;;;;;;2.90;1.40;;;1.20;71.80;;;;;;4994152;28;20041;-87
2024/01/07 10:51:27;;;;;;;4.40;1.30;;;1.20;71.60;;;;;;5015522;28;20084;-86
2024/01/07 10:53:56;;;;;;;3.13;1.23;;;1.20;71.30;;;;;;5015975;28;20034;-86
2024/01/07 10:56:29;;;;;;;3.17;1.60;;;1.90;71.30;;;;;;4999168;28;20038;-87
2024/01/07 10:58:56;;;;;;;3.33;1.30;;;1.10;70.00;;;;;;5018836;28;20104;-87
2024/01/07 11:01:21;;;;;;;2.87;1.33;;;1.10;70.30;;;;;;5006410;28;20034;-86
2024/01/07 11:04:01;;;;;;;4.20;2.00;;;1.00;70.60;;;;;;5025908;28;20562;-85
2024/01/07 11:06:55;;;;;;;3.67;1.10;;;1.10;70.50;;;;;;5014948;28;20152;-86
2024/01/07 11:09:44;;;;;;;1.77;1.00;;;1.10;71.60;;;;;;5019059;28;20064;-85
2024/01/07 11:12:11;;;;;;;3.33;1.43;;;1.10;70.20;;;;;;5016667;28;20049;-88
2024/01/07 11:14:44;;;;;;;3.30;1.30;;;1.60;70.90;;;;;;4999430;28;20061;-86
2024/01/07 11:17:11;;;;;;;3.33;1.40;;;1.10;70.00;;;;;;5012261;28;20085;-84
2024/01/07 11:19:37;;;;;;;1.87;0.97;;;1.10;70.30;;;;;;5015925;28;20056;-84
2024/01/07 11:22:23;;;;;;;3.07;1.40;;;1.10;69.40;;;;;;4997924;28;20424;-86
2024/01/07 11:24:49;;;;;;;2.87;1.30;;;1.00;69.70;;;;;;4998211;28;20034;-84
2024/01/07 11:27:16;;;;;;;2.37;1.30;;;1.10;70.60;;;;;;5013942;28;20042;-85
2024/01/07 11:29:41;;;;;;;2.97;1.27;;;1.10;70.70;;;;;;5018906;28;20149;-84
2024/01/07 11:32:08;;;;;;;2.60;1.10;;;1.10;71.50;;;;;;5013166;28;20134;-84
2024/01/07 11:34:46;;;;;;;2.63;1.40;;;1.10;71.20;;;;;;5020287;28;20339;-84
2024/01/07 11:37:12;;;;;;;4.57;1.50;;;1.10;70.90;;;;;;5012683;28;20122;-84
2024/01/07 11:39:44;;;;;;;2.50;1.40;;;1.10;70.70;;;;;;5003274;28;20088;-84
2024/01/07 11:42:10;;;;;;;4.20;1.37;;;1.10;70.40;;;;;;5015176;28;20104;-85
2024/01/07 11:44:38;;;;;;;2.30;1.30;;;1.10;70.60;;;;;;4999368;28;20544;-85
2024/01/07 11:47:05;;;;;;;3.30;1.20;;;1.10;71.00;;;;;;5013896;28;20343;-84
2024/01/07 11:49:32;;;;;;;2.87;1.30;;;1.10;70.90;;;;;;5000825;28;20044;-85
2024/01/07 11:51:58;;;;;;;2.77;1.37;;;1.10;70.90;;;;;;5018488;28;20353;-85
2024/01/07 11:54:23;;;;;;;4.90;1.60;;;1.10;70.20;;;;;;5011631;28;20042;-84
2024/01/07 11:56:49;;;;;;;2.80;1.70;;;1.10;70.10;;;;;;5013761;28;20144;-84
2024/01/07 11:59:18;;;;;;;3.53;1.30;;;1.10;70.10;;;;;;4997549;28;20037;-86
2024/01/07 12:01:43;;;;;;;2.60;1.20;;;1.10;70.00;;;;;;5003686;28;20456;-85
2024/01/07 12:04:10;;;;;;;2.97;0.90;;;1.10;70.00;;;;;;5015055;28;20047;-84
2024/01/07 12:06:35;;;;;;;2.77;1.33;;;1.10;69.80;;;;;;4998271;28;20117;-85
2024/01/07 12:09:01;;;;;;;4.50;1.63;;;1.20;68.80;;;;;;4996167;28;20129;-86
2024/01/07 12:11:27;;;;;;;4.40;1.40;;;1.20;68.70;;;;;;5012533;28;20185;-83
2024/01/07 12:13:53;;;;;;;2.87;1.50;;;1.20;69.50;;;;;;5015551;28;20045;-83
2024/01/07 12:16:19;;;;;;;2.37;1.30;;;1.20;70.20;;;;;;5003117;28;20038;-83
2024/01/07 12:18:44;;;;;;;2.10;1.10;;;1.20;70.20;;;;;;4999611;28;20095;-83
2024/01/07 12:21:10;;;;;;;2.50;1.23;;;1.30;69.10;;;;;;5010898;28;20034;-83
2024/01/07 12:23:36;;;;;;;3.27;1.73;;;1.30;69.50;;;;;;5008228;28;20062;-85
2024/01/07 12:26:09;;;;;;;3.30;1.67;;;1.30;69.70;;;;;;5001849;28;20546;-84
2024/01/07 12:28:36;;;;;;;3.87;1.50;;;1.30;70.00;;;;;;5014836;28;20460;-85
2024/01/07 12:31:06;;;;;;;2.63;1.40;;;1.30;69.60;;;;;;5017580;28;20041;-85
2024/01/07 12:33:38;;;;;;;2.43;1.30;;;1.40;69.00;;;;;;5004155;28;20033;-84
2024/01/07 12:36:03;;;;;;;3.40;1.50;;;1.60;69.10;;;;;;5005031;28;20491;-84
2024/01/07 12:38:29;;;;;;;4.77;1.67;;;1.40;69.00;;;;;;4999640;28;20121;-84
2024/01/07 12:40:56;;;;;;;4.33;1.50;;;1.40;68.70;;;;;;5005213;28;20041;-84
2024/01/07 12:43:22;;;;;;;4.37;1.60;;;1.40;69.10;;;;;;5025558;28;20389;-85
2024/01/07 12:45:49;;;;;;;3.47;1.50;;;2.00;69.90;;;;;;5011267;28;20044;-84
2024/01/07 12:48:14;;;;;;;4.07;1.73;;;1.40;70.00;;;;;;5005169;28;20476;-85